sensor_id;sensor_type;location;lat;lon;timestamp;pressure;altitude;pressure_sealevel;temperature;humidity
74529;BME280;63009;52.584;5.932;2024-01-10T00:01:26;103035.91;;;-3.62;91.60
74529;BME280;63009;52.584;5.932;2024-01-10T00:03:55;103034.16;;;-3.63;93.33
74529;BME280;63009;52.584;5.932;2024-01-10T00:06:20;103032.22;;;-3.68;92.73
74529;BME280;63009;52.584;5.932;2024-01-10T00:08:46;103035.97;;;-3.60;92.44
74529;BME280;63009;52.584;5.932;2024-01-10T00:11:11;103021.38;;;-3.58;91.76
74529;BME280;63009;52.584;5.932;2024-01-10T00:13:37;103023.25;;;-3.54;92.49
74529;BME280;63009;52.584;5.932;2024-01-10T00:16:02;103016.13;;;-3.61;91.81
74529;BME280;63009;52.584;5.932;2024-01-10T00:18:27;103029.03;;;-3.61;91.56
74529;BME280;63009;52.584;5.932;2024-01-10T00:20:53;103028.25;;;-3.82;93.02
74529;BME280;63009;52.584;5.932;2024-01-10T00:23:22;103012.16;;;-3.75;92.62
74529;BME280;63009;52.584;5.932;2024-01-10T00:25:48;103034.34;;;-3.80;92.48
74529;BME280;63009;52.584;5.932;2024-01-10T00:28:14;103027.53;;;-3.80;92.38
74529;BME280;63009;52.584;5.932;2024-01-10T00:30:41;103028.31;;;-3.81;92.30
74529;BME280;63009;52.584;5.932;2024-01-10T00:33:07;103024.50;;;-3.92;92.80
74529;BME280;63009;52.584;5.932;2024-01-10T00:35:32;103019.03;;;-3.76;92.59
74529;BME280;63009;52.584;5.932;2024-01-10T00:37:57;103019.53;;;-3.86;92.88
74529;BME280;63009;52.584;5.932;2024-01-10T00:40:23;103018.22;;;-3.75;92.17
74529;BME280;63009;52.584;5.932;2024-01-10T00:42:49;103023.53;;;-3.70;91.84
74529;BME280;63009;52.584;5.932;2024-01-10T00:45:15;103006.63;;;-3.86;91.91
74529;BME280;63009;52.584;5.932;2024-01-10T00:47:41;103003.06;;;-3.90;91.94
74529;BME280;63009;52.584;5.932;2024-01-10T00:50:06;103006.13;;;-4.00;92.76
74529;BME280;63009;52.584;5.932;2024-01-10T00:52:32;103009.16;;;-3.88;91.91
74529;BME280;63009;52.584;5.932;2024-01-10T00:54:57;103006.38;;;-3.94;92.59
74529;BME280;63009;52.584;5.932;2024-01-10T00:57:23;103010.91;;;-3.86;92.72
74529;BME280;63009;52.584;5.932;2024-01-10T00:59:48;103010.13;;;-3.84;92.82
74529;BME280;63009;52.584;5.932;2024-01-10T01:02:13;103006.72;;;-3.83;91.19
74529;BME280;63009;52.584;5.932;2024-01-10T01:04:39;103007.81;;;-3.76;90.64
74529;BME280;63009;52.584;5.932;2024-01-10T01:07:04;103004.56;;;-3.95;90.90
74529;BME280;63009;52.584;5.932;2024-01-10T01:09:29;103000.53;;;-3.88;90.26
74529;BME280;63009;52.584;5.932;2024-01-10T01:11:54;103013.88;;;-3.76;90.45
74529;BME280;63009;52.584;5.932;2024-01-10T01:14:20;103015.91;;;-3.91;90.84
74529;BME280;63009;52.584;5.932;2024-01-10T01:16:45;103005.28;;;-3.99;90.97
74529;BME280;63009;52.584;5.932;2024-01-10T01:19:10;103009.63;;;-3.98;90.88
74529;BME280;63009;52.584;5.932;2024-01-10T01:21:36;103015.03;;;-3.92;90.72
74529;BME280;63009;52.584;5.932;2024-01-10T01:24:01;103010.91;;;-3.86;90.27
74529;BME280;63009;52.584;5.932;2024-01-10T01:26:26;103012.41;;;-3.93;89.89
74529;BME280;63009;52.584;5.932;2024-01-10T01:28:52;103006.56;;;-3.88;90.47
74529;BME280;63009;52.584;5.932;2024-01-10T01:31:17;103003.09;;;-3.88;89.74
74529;BME280;63009;52.584;5.932;2024-01-10T01:33:43;103015.69;;;-3.97;90.14
74529;BME280;63009;52.584;5.932;2024-01-10T01:36:08;103004.56;;;-3.95;88.99
74529;BME280;63009;52.584;5.932;2024-01-10T01:38:33;103006.13;;;-4.00;89.23
74529;BME280;63009;52.584;5.932;2024-01-10T01:40:59;103007.22;;;-4.17;89.71
74529;BME280;63009;52.584;5.932;2024-01-10T01:43:25;103008.25;;;-4.12;90.29
74529;BME280;63009;52.584;5.932;2024-01-10T01:45:55;102995.63;;;-4.04;89.53
74529;BME280;63009;52.584;5.932;2024-01-10T01:48:21;103010.84;;;-4.12;89.60
74529;BME280;63009;52.584;5.932;2024-01-10T01:50:49;102995.13;;;-4.18;89.37
74529;BME280;63009;52.584;5.932;2024-01-10T01:53:15;103007.44;;;-3.87;88.28
74529;BME280;63009;52.584;5.932;2024-01-10T01:55:44;102996.09;;;-3.92;88.38
74529;BME280;63009;52.584;5.932;2024-01-10T01:58:10;103001.69;;;-4.04;89.00
74529;BME280;63009;52.584;5.932;2024-01-10T02:00:37;103001.72;;;-4.02;88.84
74529;BME280;63009;52.584;5.932;2024-01-10T02:03:04;103001.88;;;-3.98;88.54
74529;BME280;63009;52.584;5.932;2024-01-10T02:05:30;102991.66;;;-3.95;89.13
74529;BME280;63009;52.584;5.932;2024-01-10T02:07:55;102989.16;;;-3.93;88.39
74529;BME280;63009;52.584;5.932;2024-01-10T02:10:21;103004.31;;;-4.02;89.19
74529;BME280;63009;52.584;5.932;2024-01-10T02:12:46;102997.03;;;-4.12;89.13
74529;BME280;63009;52.584;5.932;2024-01-10T02:15:13;102999.72;;;-4.09;88.84
74529;BME280;63009;52.584;5.932;2024-01-10T02:17:39;103003.28;;;-4.07;89.77
74529;BME280;63009;52.584;5.932;2024-01-10T02:20:12;102997.88;;;-4.13;90.35
74529;BME280;63009;52.584;5.932;2024-01-10T02:22:38;102995.25;;;-4.15;90.31
74529;BME280;63009;52.584;5.932;2024-01-10T02:25:08;102980.63;;;-4.14;90.84
74529;BME280;63009;52.584;5.932;2024-01-10T02:27:35;102980.56;;;-4.16;90.10
74529;BME280;63009;52.584;5.932;2024-01-10T02:30:03;102972.88;;;-4.14;89.94
74529;BME280;63009;52.584;5.932;2024-01-10T02:32:29;102979.41;;;-4.24;90.25
74529;BME280;63009;52.584;5.932;2024-01-10T02:34:54;102989.03;;;-4.20;90.67
74529;BME280;63009;52.584;5.932;2024-01-10T02:37:19;102973.09;;;-4.32;91.19
74529;BME280;63009;52.584;5.932;2024-01-10T02:39:45;102973.50;;;-4.22;90.58
74529;BME280;63009;52.584;5.932;2024-01-10T02:42:11;102978.56;;;-4.23;91.11
74529;BME280;63009;52.584;5.932;2024-01-10T02:44:36;102972.13;;;-4.36;92.17
74529;BME280;63009;52.584;5.932;2024-01-10T02:47:02;102976.09;;;-4.44;93.00
74529;BME280;63009;52.584;5.932;2024-01-10T02:49:27;102971.00;;;-4.42;92.99
74529;BME280;63009;52.584;5.932;2024-01-10T02:51:52;102976.88;;;-4.46;93.44
74529;BME280;63009;52.584;5.932;2024-01-10T02:54:17;102962.97;;;-4.50;93.86
74529;BME280;63009;52.584;5.932;2024-01-10T02:56:43;102968.00;;;-4.53;94.38
74529;BME280;63009;52.584;5.932;2024-01-10T02:59:08;102969.34;;;-4.40;94.93
74529;BME280;63009;52.584;5.932;2024-01-10T03:01:33;102962.22;;;-4.47;94.57
74529;BME280;63009;52.584;5.932;2024-01-10T03:03:59;102956.22;;;-4.46;95.18
74529;BME280;63009;52.584;5.932;2024-01-10T03:06:24;102970.22;;;-4.40;94.75
74529;BME280;63009;52.584;5.932;2024-01-10T03:08:51;102962.38;;;-4.65;96.62
74529;BME280;63009;52.584;5.932;2024-01-10T03:11:16;102959.63;;;-4.70;96.26
74529;BME280;63009;52.584;5.932;2024-01-10T03:13:43;102947.41;;;-4.75;96.90
74529;BME280;63009;52.584;5.932;2024-01-10T03:16:09;102951.44;;;-4.60;96.50
74529;BME280;63009;52.584;5.932;2024-01-10T03:18:34;102943.31;;;-4.46;96.10
74529;BME280;63009;52.584;5.932;2024-01-10T03:21:00;102943.31;;;-4.46;96.53
74529;BME280;63009;52.584;5.932;2024-01-10T03:23:25;102935.53;;;-4.48;96.64
74529;BME280;63009;52.584;5.932;2024-01-10T03:25:52;102950.34;;;-4.42;95.79
74529;BME280;63009;52.584;5.932;2024-01-10T03:28:17;102938.06;;;-4.50;95.87
74529;BME280;63009;52.584;5.932;2024-01-10T03:30:43;102932.75;;;-4.53;95.41
74529;BME280;63009;52.584;5.932;2024-01-10T03:33:08;102925.69;;;-4.58;95.91
74529;BME280;63009;52.584;5.932;2024-01-10T03:35:33;102935.13;;;-4.59;97.19
74529;BME280;63009;52.584;5.932;2024-01-10T03:37:59;102922.88;;;-4.64;97.19
74529;BME280;63009;52.584;5.932;2024-01-10T03:40:24;102932.13;;;-4.47;96.82
74529;BME280;63009;52.584;5.932;2024-01-10T03:42:49;102925.94;;;-4.51;96.53
74529;BME280;63009;52.584;5.932;2024-01-10T03:45:17;102925.06;;;-4.51;96.37
74529;BME280;63009;52.584;5.932;2024-01-10T03:47:44;102917.16;;;-4.56;97.40
74529;BME280;63009;52.584;5.932;2024-01-10T03:50:09;102915.06;;;-4.66;97.27
74529;BME280;63009;52.584;5.932;2024-01-10T03:52:35;102912.84;;;-4.79;97.69
74529;BME280;63009;52.584;5.932;2024-01-10T03:55:00;102905.31;;;-4.74;97.91
74529;BME280;63009;52.584;5.932;2024-01-10T03:57:26;102905.75;;;-4.62;97.04
74529;BME280;63009;52.584;5.932;2024-01-10T03:59:51;102899.53;;;-4.67;98.06
74529;BME280;63009;52.584;5.932;2024-01-10T04:02:16;102910.72;;;-4.67;98.05
74529;BME280;63009;52.584;5.932;2024-01-10T04:04:42;102909.91;;;-4.66;97.23
74529;BME280;63009;52.584;5.932;2024-01-10T04:07:07;102910.25;;;-4.57;97.00
74529;BME280;63009;52.584;5.932;2024-01-10T04:09:33;102913.13;;;-4.49;97.04
74529;BME280;63009;52.584;5.932;2024-01-10T04:11:59;102914.13;;;-4.45;96.84
74529;BME280;63009;52.584;5.932;2024-01-10T04:14:24;102912.78;;;-4.58;96.54
74529;BME280;63009;52.584;5.932;2024-01-10T04:16:50;102916.75;;;-4.44;95.84
74529;BME280;63009;52.584;5.932;2024-01-10T04:19:16;102918.75;;;-4.59;96.09
74529;BME280;63009;52.584;5.932;2024-01-10T04:21:41;102921.81;;;-4.47;95.39
74529;BME280;63009;52.584;5.932;2024-01-10T04:24:07;102932.66;;;-4.56;94.62
74529;BME280;63009;52.584;5.932;2024-01-10T04:26:32;102912.00;;;-4.56;94.41
74529;BME280;63009;52.584;5.932;2024-01-10T04:28:57;102922.22;;;-4.59;93.29
74529;BME280;63009;52.584;5.932;2024-01-10T04:31:23;102919.69;;;-4.57;92.44
74529;BME280;63009;52.584;5.932;2024-01-10T04:33:48;102917.16;;;-4.56;91.84
74529;BME280;63009;52.584;5.932;2024-01-10T04:36:14;102912.16;;;-4.51;91.39
74529;BME280;63009;52.584;5.932;2024-01-10T04:38:39;102905.25;;;-4.52;91.68
74529;BME280;63009;52.584;5.932;2024-01-10T04:41:04;102901.09;;;-4.49;90.70
74529;BME280;63009;52.584;5.932;2024-01-10T04:43:30;102897.97;;;-4.40;90.60
74529;BME280;63009;52.584;5.932;2024-01-10T04:45:55;102911.06;;;-4.35;90.06
74529;BME280;63009;52.584;5.932;2024-01-10T04:48:20;102895.63;;;-4.34;88.84
74529;BME280;63009;52.584;5.932;2024-01-10T04:50:46;102884.66;;;-4.51;88.42
74529;BME280;63009;52.584;5.932;2024-01-10T04:53:11;102890.94;;;-4.44;88.22
74529;BME280;63009;52.584;5.932;2024-01-10T04:55:36;102900.44;;;-4.43;87.16
74529;BME280;63009;52.584;5.932;2024-01-10T04:58:02;102906.78;;;-4.35;87.22
74529;BME280;63009;52.584;5.932;2024-01-10T05:00:28;102906.81;;;-4.57;87.49
74529;BME280;63009;52.584;5.932;2024-01-10T05:02:53;102899.66;;;-4.40;86.35
74529;BME280;63009;52.584;5.932;2024-01-10T05:05:18;102899.28;;;-4.51;86.43
74529;BME280;63009;52.584;5.932;2024-01-10T05:07:49;102893.09;;;-4.32;85.65
74529;BME280;63009;52.584;5.932;2024-01-10T05:10:14;102895.66;;;-4.32;85.23
74529;BME280;63009;52.584;5.932;2024-01-10T05:12:39;102886.66;;;-4.43;85.55
74529;BME280;63009;52.584;5.932;2024-01-10T05:15:05;102880.78;;;-4.39;85.60
74529;BME280;63009;52.584;5.932;2024-01-10T05:17:31;102887.97;;;-4.31;85.50
74529;BME280;63009;52.584;5.932;2024-01-10T05:19:56;102884.28;;;-4.37;86.63
74529;BME280;63009;52.584;5.932;2024-01-10T05:22:21;102888.63;;;-4.36;87.68
74529;BME280;63009;52.584;5.932;2024-01-10T05:24:47;102875.13;;;-4.29;87.97
74529;BME280;63009;52.584;5.932;2024-01-10T05:27:13;102871.16;;;-4.20;88.21
74529;BME280;63009;52.584;5.932;2024-01-10T05:29:38;102872.53;;;-4.29;88.50
74529;BME280;63009;52.584;5.932;2024-01-10T05:32:04;102882.81;;;-4.31;87.64
74529;BME280;63009;52.584;5.932;2024-01-10T05:34:29;102884.94;;;-4.43;86.41
74529;BME280;63009;52.584;5.932;2024-01-10T05:36:54;102876.53;;;-4.37;86.73
74529;BME280;63009;52.584;5.932;2024-01-10T05:39:20;102877.31;;;-4.40;88.22
74529;BME280;63009;52.584;5.932;2024-01-10T05:41:46;102871.56;;;-4.33;88.65
74529;BME280;63009;52.584;5.932;2024-01-10T05:44:12;102885.34;;;-4.32;89.19
74529;BME280;63009;52.584;5.932;2024-01-10T05:46:38;102874.78;;;-4.38;89.33
74529;BME280;63009;52.584;5.932;2024-01-10T05:49:03;102883.16;;;-4.45;89.33
74529;BME280;63009;52.584;5.932;2024-01-10T05:51:30;102884.66;;;-4.51;87.90
74529;BME280;63009;52.584;5.932;2024-01-10T05:53:55;102887.75;;;-4.37;87.53
74529;BME280;63009;52.584;5.932;2024-01-10T05:56:21;102883.25;;;-4.42;86.55
74529;BME280;63009;52.584;5.932;2024-01-10T05:58:46;102894.34;;;-4.45;86.41
74529;BME280;63009;52.584;5.932;2024-01-10T06:01:11;102892.69;;;-4.43;86.23
74529;BME280;63009;52.584;5.932;2024-01-10T06:03:37;102878.47;;;-4.56;85.96
74529;BME280;63009;52.584;5.932;2024-01-10T06:06:02;102888.06;;;-4.52;85.69
74529;BME280;63009;52.584;5.932;2024-01-10T06:08:28;102891.72;;;-4.46;85.36
74529;BME280;63009;52.584;5.932;2024-01-10T06:10:54;102889.81;;;-4.51;85.87
74529;BME280;63009;52.584;5.932;2024-01-10T06:13:19;102886.22;;;-4.56;85.38
74529;BME280;63009;52.584;5.932;2024-01-10T06:15:44;102883.63;;;-4.56;85.36
74529;BME280;63009;52.584;5.932;2024-01-10T06:18:10;102894.81;;;-4.55;83.89
74529;BME280;63009;52.584;5.932;2024-01-10T06:20:35;102894.78;;;-4.57;84.29
74529;BME280;63009;52.584;5.932;2024-01-10T06:23:03;102882.53;;;-4.62;83.04
74529;BME280;63009;52.584;5.932;2024-01-10T06:25:29;102898.97;;;-4.60;83.77
74529;BME280;63009;52.584;5.932;2024-01-10T06:27:54;102881.94;;;-4.55;84.06
74529;BME280;63009;52.584;5.932;2024-01-10T06:30:20;102889.25;;;-4.43;83.71
74529;BME280;63009;52.584;5.932;2024-01-10T06:32:45;102891.88;;;-4.42;84.21
74529;BME280;63009;52.584;5.932;2024-01-10T06:35:10;102883.00;;;-4.50;84.84
74529;BME280;63009;52.584;5.932;2024-01-10T06:37:37;102878.47;;;-4.56;85.22
74529;BME280;63009;52.584;5.932;2024-01-10T06:40:03;102864.84;;;-4.52;86.63
74529;BME280;63009;52.584;5.932;2024-01-10T06:42:29;102863.34;;;-4.46;86.90
74529;BME280;63009;52.584;5.932;2024-01-10T06:44:55;102868.59;;;-4.43;86.12
74529;BME280;63009;52.584;5.932;2024-01-10T06:47:20;102866.56;;;-4.52;85.89
74529;BME280;63009;52.584;5.932;2024-01-10T06:49:46;102875.41;;;-4.45;84.84
74529;BME280;63009;52.584;5.932;2024-01-10T06:52:12;102877.59;;;-4.56;84.33
74529;BME280;63009;52.584;5.932;2024-01-10T06:54:37;102887.84;;;-4.58;84.01
74529;BME280;63009;52.584;5.932;2024-01-10T06:57:03;102889.25;;;-4.43;83.25
74529;BME280;63009;52.584;5.932;2024-01-10T06:59:28;102878.00;;;-4.45;83.70
74529;BME280;63009;52.584;5.932;2024-01-10T07:01:54;102878.03;;;-4.44;84.68
74529;BME280;63009;52.584;5.932;2024-01-10T07:04:22;102877.22;;;-4.43;84.75
74529;BME280;63009;52.584;5.932;2024-01-10T07:06:49;102868.78;;;-4.37;86.11
74529;BME280;63009;52.584;5.932;2024-01-10T07:09:14;102873.13;;;-4.36;86.71
74529;BME280;63009;52.584;5.932;2024-01-10T07:11:48;102871.66;;;-4.30;86.87
74529;BME280;63009;52.584;5.932;2024-01-10T07:14:14;102882.91;;;-4.28;85.57
74529;BME280;63009;52.584;5.932;2024-01-10T07:16:41;102863.59;;;-4.39;84.58
74529;BME280;63009;52.584;5.932;2024-01-10T07:19:09;102869.75;;;-4.35;85.21
74529;BME280;63009;52.584;5.932;2024-01-10T07:21:34;102879.69;;;-4.46;84.35
74529;BME280;63009;52.584;5.932;2024-01-10T07:23:59;102893.69;;;-4.39;83.72
74529;BME280;63009;52.584;5.932;2024-01-10T07:26:25;102887.19;;;-4.52;84.39
74529;BME280;63009;52.584;5.932;2024-01-10T07:28:52;102899.50;;;-4.45;83.59
74529;BME280;63009;52.584;5.932;2024-01-10T07:31:18;102908.50;;;-4.58;82.84
74529;BME280;63009;52.584;5.932;2024-01-10T07:33:43;102905.31;;;-4.51;82.19
74529;BME280;63009;52.584;5.932;2024-01-10T07:36:09;102894.69;;;-4.36;81.25
74529;BME280;63009;52.584;5.932;2024-01-10T07:38:34;102907.59;;;-4.36;80.86
74529;BME280;63009;52.584;5.932;2024-01-10T07:40:59;102904.06;;;-4.38;80.92
74529;BME280;63009;52.584;5.932;2024-01-10T07:43:25;102915.53;;;-4.30;79.95
74529;BME280;63009;52.584;5.932;2024-01-10T07:45:52;102913.63;;;-4.35;80.53
74529;BME280;63009;52.584;5.932;2024-01-10T07:48:18;102905.00;;;-4.36;80.89
74529;BME280;63009;52.584;5.932;2024-01-10T07:50:43;102904.38;;;-4.29;81.17
74529;BME280;63009;52.584;5.932;2024-01-10T07:53:09;102890.72;;;-4.26;80.50
74529;BME280;63009;52.584;5.932;2024-01-10T07:55:35;102896.97;;;-4.20;80.37
74529;BME280;63009;52.584;5.932;2024-01-10T07:58:00;102894.16;;;-4.26;80.76
74529;BME280;63009;52.584;5.932;2024-01-10T08:00:26;102904.16;;;-4.11;81.45
74529;BME280;63009;52.584;5.932;2024-01-10T08:02:51;102895.66;;;-4.32;82.49
74529;BME280;63009;52.584;5.932;2024-01-10T08:05:17;102894.34;;;-4.21;82.71
74529;BME280;63009;52.584;5.932;2024-01-10T08:07:42;102890.00;;;-4.22;83.01
74529;BME280;63009;52.584;5.932;2024-01-10T08:10:08;102889.00;;;-4.26;84.46
74529;BME280;63009;52.584;5.932;2024-01-10T08:12:39;102887.59;;;-4.18;85.81
74529;BME280;63009;52.584;5.932;2024-01-10T08:15:06;102895.28;;;-4.19;84.77
74529;BME280;63009;52.584;5.932;2024-01-10T08:17:32;102886.59;;;-4.21;83.16
74529;BME280;63009;52.584;5.932;2024-01-10T08:19:58;102887.84;;;-4.10;83.32
74529;BME280;63009;52.584;5.932;2024-01-10T08:22:24;102886.22;;;-4.08;83.51
74529;BME280;63009;52.584;5.932;2024-01-10T08:24:49;102868.53;;;-3.96;82.68
74529;BME280;63009;52.584;5.932;2024-01-10T08:27:15;102880.88;;;-4.12;81.98
74529;BME280;63009;52.584;5.932;2024-01-10T08:29:42;102854.84;;;-4.19;81.00
74529;BME280;63009;52.584;5.932;2024-01-10T08:32:07;102886.66;;;-3.94;80.65
74529;BME280;63009;52.584;5.932;2024-01-10T08:34:32;102878.66;;;-4.02;80.88
74529;BME280;63009;52.584;5.932;2024-01-10T08:36:58;102883.09;;;-3.98;80.60
74529;BME280;63009;52.584;5.932;2024-01-10T08:39:23;102888.34;;;-3.95;79.48
74529;BME280;63009;52.584;5.932;2024-01-10T08:41:51;102895.97;;;-3.99;78.40
74529;BME280;63009;52.584;5.932;2024-01-10T08:44:18;102893.41;;;-3.98;78.04
74529;BME280;63009;52.584;5.932;2024-01-10T08:46:43;102888.63;;;-3.87;77.97
74529;BME280;63009;52.584;5.932;2024-01-10T08:49:08;102890.22;;;-3.65;77.89
74529;BME280;63009;52.584;5.932;2024-01-10T08:51:35;102879.81;;;-3.67;76.29
74529;BME280;63009;52.584;5.932;2024-01-10T08:54:00;102899.03;;;-3.59;75.09
74529;BME280;63009;52.584;5.932;2024-01-10T08:56:25;102892.81;;;-3.65;74.01
74529;BME280;63009;52.584;5.932;2024-01-10T08:58:51;102894.19;;;-3.49;72.83
74529;BME280;63009;52.584;5.932;2024-01-10T09:01:17;102903.44;;;-3.56;72.97
74529;BME280;63009;52.584;5.932;2024-01-10T09:03:42;102897.78;;;-3.44;72.69
74529;BME280;63009;52.584;5.932;2024-01-10T09:06:07;102883.63;;;-3.55;73.08
74529;BME280;63009;52.584;5.932;2024-01-10T09:08:36;102897.88;;;-3.41;73.12
74529;BME280;63009;52.584;5.932;2024-01-10T09:11:02;102899.41;;;-3.21;72.92
74529;BME280;63009;52.584;5.932;2024-01-10T09:13:27;102889.78;;;-3.25;73.02
74529;BME280;63009;52.584;5.932;2024-01-10T09:15:52;102899.84;;;-3.34;72.77
74529;BME280;63009;52.584;5.932;2024-01-10T09:18:18;102902.38;;;-3.36;73.21
74529;BME280;63009;52.584;5.932;2024-01-10T09:20:44;102898.09;;;-3.35;71.75
74529;BME280;63009;52.584;5.932;2024-01-10T09:23:09;102895.81;;;-3.24;71.92
74529;BME280;63009;52.584;5.932;2024-01-10T09:25:35;102889.97;;;-3.19;72.32
74529;BME280;63009;52.584;5.932;2024-01-10T09:28:01;102899.19;;;-3.27;70.95
74529;BME280;63009;52.584;5.932;2024-01-10T09:30:26;102897.38;;;-3.03;72.18
74529;BME280;63009;52.584;5.932;2024-01-10T09:32:51;102905.72;;;-3.11;69.75
74529;BME280;63009;52.584;5.932;2024-01-10T09:35:17;102909.72;;;-2.94;70.07
74529;BME280;63009;52.584;5.932;2024-01-10T09:37:43;102917.16;;;-3.05;69.81
74529;BME280;63009;52.584;5.932;2024-01-10T09:40:11;102904.31;;;-3.02;69.49
74529;BME280;63009;52.584;5.932;2024-01-10T09:42:39;102909.31;;;-2.79;69.46
74529;BME280;63009;52.584;5.932;2024-01-10T09:45:04;102914.59;;;-2.75;69.56
74529;BME280;63009;52.584;5.932;2024-01-10T09:47:31;102901.09;;;-2.94;68.95
74529;BME280;63009;52.584;5.932;2024-01-10T09:49:57;102901.34;;;-2.85;67.84
74529;BME280;63009;52.584;5.932;2024-01-10T09:52:27;102917.63;;;-2.59;69.33
74529;BME280;63009;52.584;5.932;2024-01-10T09:54:57;102914.09;;;-2.63;68.58
74529;BME280;63009;52.584;5.932;2024-01-10T09:57:25;102917.47;;;-2.65;67.02
74529;BME280;63009;52.584;5.932;2024-01-10T09:59:51;102916.16;;;-2.51;67.02
74529;BME280;63009;52.584;5.932;2024-01-10T10:02:18;102913.81;;;-2.42;66.35
74529;BME280;63009;52.584;5.932;2024-01-10T10:04:52;102906.72;;;-2.18;66.63
74529;BME280;63009;52.584;5.932;2024-01-10T10:07:19;102907.06;;;-2.05;65.91
74529;BME280;63009;52.584;5.932;2024-01-10T10:09:44;102909.03;;;-1.97;64.97
74529;BME280;63009;52.584;5.932;2024-01-10T10:12:09;102908.19;;;-1.96;64.25
74529;BME280;63009;52.584;5.932;2024-01-10T10:14:35;102889.94;;;-1.99;62.96
74529;BME280;63009;52.584;5.932;2024-01-10T10:17:16;102891.22;;;-1.83;64.28
74529;BME280;63009;52.584;5.932;2024-01-10T10:19:42;102891.28;;;-1.82;62.99
74529;BME280;63009;52.584;5.932;2024-01-10T10:22:08;102879.00;;;-1.89;61.91
74529;BME280;63009;52.584;5.932;2024-01-10T10:24:34;102869.63;;;-1.84;63.14
74529;BME280;63009;52.584;5.932;2024-01-10T10:26:59;102892.50;;;-1.67;64.10
74529;BME280;63009;52.584;5.932;2024-01-10T10:29:25;102891.84;;;-1.59;62.53
74529;BME280;63009;52.584;5.932;2024-01-10T10:31:50;102902.22;;;-1.59;60.83
74529;BME280;63009;52.584;5.932;2024-01-10T10:34:20;102906.44;;;-1.62;60.31
74529;BME280;63009;52.584;5.932;2024-01-10T10:36:46;102903.31;;;-1.49;60.01
74529;BME280;63009;52.584;5.932;2024-01-10T10:39:16;102898.31;;;-1.41;59.20
74529;BME280;63009;52.584;5.932;2024-01-10T10:41:42;102892.78;;;-1.55;58.00
74529;BME280;63009;52.584;5.932;2024-01-10T10:44:09;102890.31;;;-1.51;57.87
74529;BME280;63009;52.584;5.932;2024-01-10T10:46:35;102894.25;;;-1.30;58.02
74529;BME280;63009;52.584;5.932;2024-01-10T10:49:09;102886.59;;;-1.26;59.88
74529;BME280;63009;52.584;5.932;2024-01-10T10:51:36;102892.91;;;-1.13;59.11
74529;BME280;63009;52.584;5.932;2024-01-10T10:54:03;102874.06;;;-1.06;59.80
74529;BME280;63009;52.584;5.932;2024-01-10T10:56:31;102879.25;;;-1.06;62.82
74529;BME280;63009;52.584;5.932;2024-01-10T10:58:58;102882.16;;;-0.92;61.37
74529;BME280;63009;52.584;5.932;2024-01-10T11:01:26;102883.56;;;-1.06;59.28
74529;BME280;63009;52.584;5.932;2024-01-10T11:03:53;102884.50;;;-1.03;59.13
74529;BME280;63009;52.584;5.932;2024-01-10T11:06:19;102882.97;;;-0.95;59.55
74529;BME280;63009;52.584;5.932;2024-01-10T11:08:57;102868.31;;;-0.93;58.37
74529;BME280;63009;52.584;5.932;2024-01-10T11:20:13;102883.34;;;-0.34;58.49
74529;BME280;63009;52.584;5.932;2024-01-10T11:25:26;102867.56;;;-0.43;57.46
74529;BME280;63009;52.584;5.932;2024-01-10T11:27:55;102871.38;;;-0.27;56.64
74529;BME280;63009;52.584;5.932;2024-01-10T11:30:50;102872.03;;;-0.38;56.42
74529;BME280;63009;52.584;5.932;2024-01-10T11:33:33;102876.75;;;-0.17;56.39
74529;BME280;63009;52.584;5.932;2024-01-10T11:36:18;102874.00;;;-0.26;54.85
74529;BME280;63009;52.584;5.932;2024-01-10T11:41:36;102862.53;;;-0.36;55.28
74529;BME280;63009;52.584;5.932;2024-01-10T11:49:10;102856.66;;;-0.27;55.59
74529;BME280;63009;52.584;5.932;2024-01-10T11:51:42;102845.59;;;-0.15;54.22
74529;BME280;63009;52.584;5.932;2024-01-10T11:54:07;102846.59;;;-0.07;54.49
74529;BME280;63009;52.584;5.932;2024-01-10T11:56:42;102852.50;;;-0.16;54.58
74529;BME280;63009;52.584;5.932;2024-01-10T11:59:10;102851.75;;;-0.10;54.04
74529;BME280;63009;52.584;5.932;2024-01-10T12:01:40;102851.53;;;-0.22;52.70
74529;BME280;63009;52.584;5.932;2024-01-10T12:04:06;102847.47;;;-0.07;53.97
74529;BME280;63009;52.584;5.932;2024-01-10T12:06:34;102855.97;;;-0.15;53.71
74529;BME280;63009;52.584;5.932;2024-01-10T12:09:00;102857.69;;;-0.16;52.06
74529;BME280;63009;52.584;5.932;2024-01-10T12:11:30;102855.47;;;0.04;53.28
74529;BME280;63009;52.584;5.932;2024-01-10T12:13:55;102864.03;;;-0.02;53.87
74529;BME280;63009;52.584;5.932;2024-01-10T12:16:23;102861.63;;;0.11;53.93
74529;BME280;63009;52.584;5.932;2024-01-10T12:18:48;102855.50;;;0.06;54.47
74529;BME280;63009;52.584;5.932;2024-01-10T12:21:13;102852.44;;;-0.19;52.70
74529;BME280;63009;52.584;5.932;2024-01-10T12:23:39;102844.81;;;-0.11;53.42
74529;BME280;63009;52.584;5.932;2024-01-10T12:26:09;102845.94;;;0.03;52.32
74529;BME280;63009;52.584;5.932;2024-01-10T12:28:38;102842.44;;;0.03;52.10
74529;BME280;63009;52.584;5.932;2024-01-10T12:31:03;102844.03;;;-0.06;52.38
74529;BME280;63009;52.584;5.932;2024-01-10T12:33:30;102828.63;;;0.05;53.70
74529;BME280;63009;52.584;5.932;2024-01-10T12:36:09;102835.41;;;-0.03;53.11
74529;BME280;63009;52.584;5.932;2024-01-10T12:38:36;102829.47;;;0.03;52.09
74529;BME280;63009;52.584;5.932;2024-01-10T12:41:03;102831.28;;;0.08;51.07
74529;BME280;63009;52.584;5.932;2024-01-10T12:43:30;102837.38;;;0.10;51.66
74529;BME280;63009;52.584;5.932;2024-01-10T12:46:11;102828.81;;;0.16;51.08
74529;BME280;63009;52.584;5.932;2024-01-10T12:48:38;102821.94;;;0.21;51.88
74529;BME280;63009;52.584;5.932;2024-01-10T12:51:10;102831.22;;;0.05;49.67
74529;BME280;63009;52.584;5.932;2024-01-10T12:53:37;102828.97;;;0.26;50.06
74529;BME280;63009;52.584;5.932;2024-01-10T12:56:03;102813.44;;;0.29;49.98
74529;BME280;63009;52.584;5.932;2024-01-10T12:58:29;102815.72;;;0.11;49.63
74529;BME280;63009;52.584;5.932;2024-01-10T13:00:55;102814.34;;;0.33;50.13
74529;BME280;63009;52.584;5.932;2024-01-10T13:03:21;102814.13;;;0.19;51.48
74529;BME280;63009;52.584;5.932;2024-01-10T13:05:46;102817.66;;;0.24;51.40